Time;durP1;ratioP1;P1;durP2;ratioP2;P2;SDS_P1;SDS_P2;PMS_P1;PMS_P2;Temp;Humidity;BMP_temperature;BMP_pressure;BME280_temperature;BME280_humidity;BME280_pressure;Samples;Min_cycle;Max_cycle;Signal;HPM_P1;HPM_P2
2021/07/01 00:01:53;;;;;;;13.23;7.10;;;;;;;14.48;98.50;100465.44;5030057;28;20053;-84
2021/07/01 00:04:21;;;;;;;14.85;7.68;;;;;;;14.39;99.17;100466.59;5046845;28;20084;-84
2021/07/01 00:06:49;;;;;;;7.93;5.97;;;;;;;14.32;99.33;100456.25;5032903;28;20045;-84
2021/07/01 00:09:18;;;;;;;9.40;7.20;;;;;;;14.31;99.64;100460.66;5032760;28;20041;-84
2021/07/01 00:11:56;;;;;;;10.55;7.15;;;;;;;14.30;99.86;100463.31;5050522;28;20060;-84
2021/07/01 00:14:24;;;;;;;6.70;6.07;;;;;;;14.27;99.41;100456.38;5034873;28;20037;-83
2021/07/01 00:16:57;;;;;;;7.55;6.10;;;;;;;14.26;99.61;100456.44;5050770;28;20047;-84
2021/07/01 00:19:26;;;;;;;8.48;6.75;;;;;;;14.24;99.50;100456.47;5050262;28;20072;-83
2021/07/01 00:21:53;;;;;;;8.38;7.15;;;;;;;14.23;99.51;100452.97;5058158;28;20810;-84
2021/07/01 00:24:21;;;;;;;9.23;6.38;;;;;;;14.19;99.11;100453.94;5059853;28;20049;-84
2021/07/01 00:26:48;;;;;;;6.28;5.65;;;;;;;14.16;99.34;100453.19;5053349;28;20036;-84
2021/07/01 00:29:15;;;;;;;21.63;6.60;;;;;;;14.12;99.65;100447.13;5035398;28;20083;-84
2021/07/01 00:31:42;;;;;;;7.95;5.82;;;;;;;14.05;99.44;100456.97;5054810;28;20072;-84
2021/07/01 00:34:10;;;;;;;8.98;6.03;;;;;;;14.01;99.86;100452.66;5038480;28;20116;-84
2021/07/01 00:36:38;;;;;;;7.65;6.55;;;;;;;14.00;99.90;100457.97;5060505;28;20044;-84
2021/07/01 00:39:06;;;;;;;8.23;6.78;;;;;;;13.96;100.00;100451.06;5040499;28;20223;-84
2021/07/01 00:41:35;;;;;;;8.32;7.20;;;;;;;13.89;100.00;100453.84;5052658;28;20071;-85
2021/07/01 00:44:05;;;;;;;7.05;6.35;;;;;;;13.84;100.00;100444.38;5063955;28;20687;-84
2021/07/01 00:46:34;;;;;;;7.40;6.65;;;;;;;13.84;100.00;100450.47;5040586;28;20037;-84
2021/07/01 00:49:01;;;;;;;9.15;7.45;;;;;;;13.84;100.00;100450.47;5055782;28;20044;-85
2021/07/01 00:51:29;;;;;;;9.95;7.55;;;;;;;13.85;100.00;100446.09;5039498;28;20033;-84
2021/07/01 00:53:56;;;;;;;7.72;6.55;;;;;;;13.83;100.00;100448.78;5054209;28;20096;-84
2021/07/01 00:56:24;;;;;;;9.05;6.93;;;;;;;13.79;100.00;100448.88;5039803;28;20100;-84
2021/07/01 00:58:56;;;;;;;7.63;6.30;;;;;;;13.73;100.00;100448.13;5044595;28;20072;-84
2021/07/01 01:01:28;;;;;;;10.13;7.05;;;;;;;13.73;100.00;100444.66;5072033;28;20500;-84
2021/07/01 01:03:56;;;;;;;10.75;6.75;;;;;;;13.70;100.00;100440.34;5043675;28;20080;-84
2021/07/01 01:06:23;;;;;;;9.52;6.78;;;;;;;13.70;100.00;100437.69;5073616;28;20102;-84
2021/07/01 01:08:54;;;;;;;9.63;5.93;;;;;;;13.72;100.00;100438.50;5042719;28;20052;-84
2021/07/01 01:11:23;;;;;;;8.05;6.72;;;;;;;13.72;100.00;100435.03;5052959;28;20083;-84
2021/07/01 01:13:55;;;;;;;9.90;6.00;;;;;;;13.71;100.00;100442.06;5052284;28;20067;-84
2021/07/01 01:16:23;;;;;;;10.13;6.60;;;;;;;13.73;100.00;100442.03;5038847;28;20049;-84
2021/07/01 01:18:50;;;;;;;10.45;6.60;;;;;;;13.76;100.00;100447.19;5056045;28;20045;-84
2021/07/01 01:21:26;;;;;;;6.70;5.88;;;;;;;13.72;100.00;100451.66;5045704;28;20068;-84
2021/07/01 01:23:56;;;;;;;7.88;7.00;;;;;;;13.71;100.00;100444.69;5046044;28;20049;-84
2021/07/01 01:26:26;;;;;;;11.30;6.95;;;;;;;13.70;100.00;100445.59;5046302;28;20068;-84
2021/07/01 01:28:54;;;;;;;10.10;6.40;;;;;;;13.66;100.00;100446.56;5064742;28;20049;-84
2021/07/01 01:31:22;;;;;;;8.35;6.20;;;;;;;13.66;100.00;100443.94;5042758;28;20063;-84
2021/07/01 01:33:54;;;;;;;11.70;7.00;;;;;;;13.65;100.00;100443.97;5045776;28;20075;-83
2021/07/01 01:36:22;;;;;;;10.93;6.50;;;;;;;13.55;100.00;100443.34;5049148;28;20040;-84
2021/07/01 01:38:57;;;;;;;9.88;7.03;;;;;;;13.50;100.00;100442.59;5045530;28;20040;-84
2021/07/01 01:41:35;;;;;;;7.93;6.15;;;;;;;13.46;100.00;100439.16;5062722;28;20613;-83
2021/07/01 01:44:07;;;;;;;9.02;6.70;;;;;;;13.42;100.00;100440.16;5058845;28;20143;-84
2021/07/01 01:46:36;;;;;;;10.50;6.32;;;;;;;13.37;100.00;100436.75;5094702;28;20044;-84
2021/07/01 01:49:06;;;;;;;7.65;6.30;;;;;;;13.36;100.00;100445.50;5046903;28;20033;-83
2021/07/01 01:51:38;;;;;;;13.38;7.95;;;;;;;13.32;100.00;100436.81;5048180;28;20057;-84
2021/07/01 01:54:09;;;;;;;11.73;6.88;;;;;;;13.23;100.00;100443.19;5066982;28;20048;-84
2021/07/01 01:56:45;;;;;;;14.80;7.05;;;;;;;13.21;100.00;100439.72;5063943;28;20072;-84
2021/07/01 01:59:14;;;;;;;10.05;6.53;;;;;;;13.19;100.00;100443.28;5066152;28;20052;-85
2021/07/01 02:01:42;;;;;;;11.05;6.50;;;;;;;13.17;100.00;100439.84;5062946;28;20053;-84
2021/07/01 02:04:12;;;;;;;12.80;6.97;;;;;;;13.16;100.00;100446.84;5064839;28;20075;-84
2021/07/01 02:06:38;;;;;;;8.57;6.90;;;;;;;13.12;100.00;100446.97;5050453;28;20049;-84
2021/07/01 02:09:06;;;;;;;12.82;7.22;;;;;;;13.10;100.00;100448.75;5064598;28;20048;-84
2021/07/01 02:11:33;;;;;;;8.82;6.60;;;;;;;13.10;100.00;100443.50;5063001;28;20065;-84
2021/07/01 02:14:02;;;;;;;13.48;8.02;;;;;;;13.07;100.00;100444.44;5047424;28;20053;-84
2021/07/01 02:16:31;;;;;;;10.13;7.72;;;;;;;13.03;100.00;100441.00;5049153;28;20071;-85
2021/07/01 02:18:59;;;;;;;11.13;7.13;;;;;;;12.98;100.00;100442.84;5049471;28;20040;-84
2021/07/01 02:21:26;;;;;;;11.88;7.80;;;;;;;12.97;100.00;100440.28;5063782;28;20040;-84
2021/07/01 02:23:59;;;;;;;9.38;6.95;;;;;;;12.92;100.00;100445.66;5064773;28;20078;-84
2021/07/01 02:26:28;;;;;;;11.20;8.45;;;;;;;12.90;100.00;100444.81;5064181;28;20037;-84
2021/07/01 02:28:57;;;;;;;10.32;7.75;;;;;;;12.91;100.00;100447.38;5049162;28;20146;-83
2021/07/01 02:31:25;;;;;;;16.17;8.55;;;;;;;13.00;100.00;100442.84;5047254;28;20058;-84
2021/07/01 02:33:52;;;;;;;10.43;8.20;;;;;;;13.01;100.00;100439.31;5050820;28;20037;-84
2021/07/01 02:36:21;;;;;;;14.93;7.97;;;;;;;13.06;100.00;100434.81;5047720;28;20037;-83
2021/07/01 02:38:52;;;;;;;15.80;8.90;;;;;;;13.08;100.00;100439.13;5082152;28;20040;-84
2021/07/01 02:41:21;;;;;;;10.23;8.20;;;;;;;13.09;100.00;100437.38;5064756;28;20080;-84
2021/07/01 02:43:51;;;;;;;13.10;7.82;;;;;;;13.08;100.00;100431.25;5052667;28;20098;-84
2021/07/01 02:46:20;;;;;;;12.10;7.82;;;;;;;13.06;100.00;100427.81;5066314;28;20049;-83
2021/07/01 02:48:49;;;;;;;12.60;8.32;;;;;;;13.05;100.00;100433.97;5064432;28;20025;-84
2021/07/01 02:51:19;;;;;;;10.70;8.57;;;;;;;13.02;100.00;100438.41;5068681;28;20059;-84
2021/07/01 02:53:49;;;;;;;12.70;9.70;;;;;;;12.95;100.00;100436.84;5063774;28;20060;-84
2021/07/01 02:56:18;;;;;;;15.40;8.65;;;;;;;12.98;100.00;100440.22;5051751;28;20049;-85
2021/07/01 02:58:49;;;;;;;14.57;8.52;;;;;;;12.95;100.00;100428.94;5067297;28;20565;-84
2021/07/01 03:01:22;;;;;;;15.18;10.15;;;;;;;12.95;100.00;100419.28;5062742;28;20048;-84
2021/07/01 03:03:49;;;;;;;13.50;9.17;;;;;;;12.94;100.00;100429.84;5051656;28;20083;-84
2021/07/01 03:06:17;;;;;;;11.68;9.52;;;;;;;12.98;100.00;100431.50;5075332;28;20219;-84
2021/07/01 03:08:47;;;;;;;17.05;9.80;;;;;;;12.99;100.00;100422.72;5051534;28;20045;-84
2021/07/01 03:11:15;;;;;;;11.35;8.30;;;;;;;13.00;100.00;100432.34;5062332;28;20042;-84
2021/07/01 03:13:42;;;;;;;16.70;9.95;;;;;;;12.96;100.00;100426.28;5064711;28;20049;-84
2021/07/01 03:16:09;;;;;;;13.10;9.70;;;;;;;12.97;100.00;100421.88;5063057;28;20057;-83
2021/07/01 03:18:36;;;;;;;13.85;9.57;;;;;;;12.98;100.00;100419.22;5063080;28;20088;-83
2021/07/01 03:21:05;;;;;;;17.25;11.20;;;;;;;12.96;100.00;100415.78;5050235;28;20040;-83
2021/07/01 03:23:32;;;;;;;15.75;9.68;;;;;;;12.95;100.00;100423.69;5062401;28;20025;-83
2021/07/01 03:26:02;;;;;;;18.52;10.60;;;;;;;12.96;100.00;100418.41;5050545;28;20033;-84
2021/07/01 03:28:35;;;;;;;16.15;10.85;;;;;;;12.94;100.00;100420.19;5051703;28;20900;-84
2021/07/01 03:31:04;;;;;;;16.25;11.25;;;;;;;12.90;100.00;100421.16;5063252;28;20049;-84
2021/07/01 03:33:32;;;;;;;19.27;12.75;;;;;;;12.87;100.00;100416.84;5073935;28;20119;-84
2021/07/01 03:35:59;;;;;;;17.27;11.60;;;;;;;12.85;100.00;100413.41;5062277;28;20044;-83
2021/07/01 03:38:33;;;;;;;17.45;10.55;;;;;;;12.89;100.00;100411.53;5064693;28;20067;-83
2021/07/01 03:41:01;;;;;;;14.93;10.93;;;;;;;12.87;100.00;100401.06;5043061;28;20066;-84
2021/07/01 03:43:28;;;;;;;14.93;10.98;;;;;;;12.86;100.00;100401.13;5059651;28;20074;-83
2021/07/01 03:45:56;;;;;;;15.77;10.43;;;;;;;12.85;100.00;100410.78;5075994;28;20116;-83
2021/07/01 03:48:32;;;;;;;15.88;10.30;;;;;;;12.84;100.00;100397.66;5044689;28;20083;-83
2021/07/01 03:51:05;;;;;;;13.20;10.15;;;;;;;12.83;100.00;100409.06;5046696;28;20044;-83
2021/07/01 03:53:32;;;;;;;14.60;10.25;;;;;;;12.81;100.00;100406.47;5072478;28;20044;-84
2021/07/01 03:56:00;;;;;;;12.40;10.32;;;;;;;12.81;100.00;100398.56;5043993;28;20052;-83
2021/07/01 03:58:26;;;;;;;16.42;10.63;;;;;;;12.81;100.00;100384.59;5061157;28;20563;-83
2021/07/01 04:00:58;;;;;;;13.57;9.95;;;;;;;12.77;100.00;100399.56;5056578;28;20043;-84
2021/07/01 04:03:24;;;;;;;15.27;10.55;;;;;;;12.78;100.00;100389.94;5056497;28;20588;-84
2021/07/01 04:05:52;;;;;;;13.75;9.88;;;;;;;12.78;100.00;100387.31;5046396;28;20045;-85
2021/07/01 04:08:21;;;;;;;14.32;8.75;;;;;;;12.74;100.00;100395.22;5050417;28;20068;-85
2021/07/01 04:10:48;;;;;;;11.55;8.75;;;;;;;12.79;100.00;100391.63;5060260;28;20052;-84
2021/07/01 04:13:15;;;;;;;13.73;9.23;;;;;;;12.78;100.00;100398.66;5046097;28;20113;-84
2021/07/01 04:15:46;;;;;;;13.15;9.07;;;;;;;12.78;100.00;100397.81;5044150;28;20071;-85
2021/07/01 04:18:15;;;;;;;13.77;8.18;;;;;;;12.81;100.00;100397.72;5047950;28;20055;-84
2021/07/01 04:20:43;;;;;;;12.32;8.13;;;;;;;12.84;100.00;100393.28;5076333;28;20045;-84
2021/07/01 04:23:12;;;;;;;12.68;8.65;;;;;;;12.85;100.00;100391.50;5046723;28;20051;-84
2021/07/01 04:25:39;;;;;;;10.27;8.52;;;;;;;12.82;100.00;100392.44;5045095;28;20487;-84
2021/07/01 04:28:08;;;;;;;16.65;8.40;;;;;;;12.81;100.00;100395.09;5047221;28;20071;-85
2021/07/01 04:30:42;;;;;;;13.85;8.18;;;;;;;12.80;100.00;100396.00;5064904;28;20044;-84
2021/07/01 04:33:14;;;;;;;14.05;9.18;;;;;;;12.79;100.00;100396.88;5052100;28;20059;-84
2021/07/01 04:35:48;;;;;;;14.13;8.90;;;;;;;12.76;100.00;100400.44;5078666;28;20040;-84
2021/07/01 04:38:21;;;;;;;11.38;7.80;;;;;;;12.78;100.00;100387.31;5050062;28;20045;-84
2021/07/01 04:40:48;;;;;;;11.18;8.63;;;;;;;12.77;100.00;100388.19;5048544;28;20091;-84
2021/07/01 04:43:16;;;;;;;14.10;8.80;;;;;;;12.81;100.00;100393.31;5062547;28;20070;-84
2021/07/01 04:45:45;;;;;;;16.13;8.75;;;;;;;12.84;100.00;100395.03;5061877;28;20052;-83
2021/07/01 04:48:13;;;;;;;10.82;8.32;;;;;;;12.84;100.00;100388.03;5050867;28;20041;-84
2021/07/01 04:50:44;;;;;;;10.25;8.20;;;;;;;12.82;100.00;100389.81;5048872;28;20044;-84
2021/07/01 04:53:14;;;;;;;12.40;9.55;;;;;;;12.83;100.00;100380.19;5067247;28;20098;-84
2021/07/01 04:55:43;;;;;;;12.95;8.80;;;;;;;12.86;100.00;100382.72;5053038;28;20040;-84
2021/07/01 04:58:12;;;;;;;13.30;9.50;;;;;;;12.85;100.00;100388.88;5067428;28;20048;-84
2021/07/01 05:00:45;;;;;;;14.95;9.73;;;;;;;12.85;100.00;100391.50;5052711;28;20100;-84
2021/07/01 05:03:12;;;;;;;17.85;8.77;;;;;;;12.85;100.00;100396.75;5082434;28;20045;-84
2021/07/01 05:05:46;;;;;;;15.05;8.60;;;;;;;12.78;100.00;100400.44;5082753;28;20052;-84
2021/07/01 05:08:17;;;;;;;14.38;9.63;;;;;;;12.82;100.00;100402.09;5070136;28;20040;-84
2021/07/01 05:10:45;;;;;;;12.50;9.05;;;;;;;12.78;100.00;100382.91;5101496;28;20079;-84
2021/07/01 05:13:13;;;;;;;12.88;9.43;;;;;;;12.74;100.00;100387.34;5070981;28;20066;-84
2021/07/01 05:15:40;;;;;;;13.50;9.52;;;;;;;12.73;100.00;100384.75;5053479;28;20644;-84
2021/07/01 05:18:15;;;;;;;15.77;9.88;;;;;;;12.71;100.00;100383.91;5071755;28;20059;-84
2021/07/01 05:20:45;;;;;;;14.57;9.88;;;;;;;12.69;100.00;100389.22;5072581;28;20049;-85
2021/07/01 05:23:17;;;;;;;13.30;10.57;;;;;;;12.69;100.00;100383.09;5052453;28;20039;-84
2021/07/01 05:25:59;;;;;;;16.33;10.55;;;;;;;12.64;100.00;100384.97;5049068;28;20058;-84
2021/07/01 05:28:31;;;;;;;19.98;12.23;;;;;;;12.66;100.00;100391.91;5083134;28;20303;-84
2021/07/01 05:31:02;;;;;;;15.05;9.63;;;;;;;12.64;100.00;100392.84;5071552;28;20107;-84
2021/07/01 05:33:31;;;;;;;16.13;10.60;;;;;;;12.66;100.00;100398.91;5053290;28;20465;-85
2021/07/01 05:36:01;;;;;;;14.32;9.75;;;;;;;12.68;100.00;100392.72;5056059;28;20040;-85
2021/07/01 05:38:33;;;;;;;19.48;9.45;;;;;;;12.73;100.00;100379.50;5074014;28;20040;-84
2021/07/01 05:41:01;;;;;;;13.93;10.02;;;;;;;12.76;100.00;100400.44;5085390;28;20040;-85
2021/07/01 05:43:33;;;;;;;16.05;9.10;;;;;;;12.81;100.00;100392.47;5053489;28;20132;-85
2021/07/01 05:46:06;;;;;;;14.07;9.85;;;;;;;12.80;100.00;100394.25;5055701;28;20049;-85
2021/07/01 05:48:41;;;;;;;17.77;9.30;;;;;;;12.82;100.00;100397.69;5052779;28;20045;-84
2021/07/01 05:51:11;;;;;;;15.48;10.13;;;;;;;12.81;100.00;100392.47;5073336;28;20049;-84
2021/07/01 05:53:50;;;;;;;11.68;8.20;;;;;;;12.83;100.00;100383.66;5073462;28;20052;-84
2021/07/01 05:56:25;;;;;;;15.00;8.82;;;;;;;12.86;100.00;100394.09;5057853;28;20048;-85
2021/07/01 05:58:58;;;;;;;14.77;9.52;;;;;;;12.87;100.00;100403.69;5070643;28;20044;-85
2021/07/01 06:01:25;;;;;;;15.57;9.45;;;;;;;12.86;100.00;100404.59;5071082;28;20052;-84
2021/07/01 06:04:07;;;;;;;16.08;9.77;;;;;;;12.87;100.00;100405.47;5056419;28;20036;-85
2021/07/01 06:06:54;;;;;;;12.47;8.17;;;;;;;12.89;100.00;100403.66;5085409;28;20056;-85
2021/07/01 06:09:29;;;;;;;10.80;9.55;;;;;;;12.90;100.00;100408.88;5077132;28;20286;-84
2021/07/01 06:12:09;;;;;;;11.80;9.10;;;;;;;12.91;100.00;100407.13;5057728;28;20044;-84
2021/07/01 06:14:43;;;;;;;15.40;9.85;;;;;;;12.93;100.00;100404.47;5087261;28;20136;-85
2021/07/01 06:17:18;;;;;;;18.00;10.27;;;;;;;12.90;100.00;100402.78;5070577;28;20044;-85
2021/07/01 06:19:49;;;;;;;13.93;9.88;;;;;;;12.88;100.00;100401.94;5056857;28;20629;-85
2021/07/01 06:22:24;;;;;;;13.68;10.07;;;;;;;12.87;100.00;100395.81;5052517;28;20041;-85
2021/07/01 06:24:56;;;;;;;12.50;9.25;;;;;;;12.86;100.00;100401.13;5072035;28;20032;-85
2021/07/01 06:27:35;;;;;;;13.60;9.48;;;;;;;12.88;100.00;100402.81;5057484;28;20104;-85
2021/07/01 06:30:23;;;;;;;11.32;8.40;;;;;;;12.93;100.00;100401.84;5036065;28;20083;-84
2021/07/01 06:39:24;;;;;;;13.68;8.63;;;;;;;13.04;100.00;100408.56;5051280;28;20063;-85
2021/07/01 06:42:06;;;;;;;17.85;8.73;;;;;;;13.08;100.00;100404.97;5034460;28;20036;-85
2021/07/01 06:44:41;;;;;;;12.85;7.93;;;;;;;13.11;100.00;100400.56;5065854;28;20101;-85
2021/07/01 06:47:20;;;;;;;13.20;9.60;;;;;;;13.14;100.00;100403.97;5052821;28;20087;-86
2021/07/01 06:49:53;;;;;;;9.27;7.82;;;;;;;13.18;100.00;100408.25;5048066;28;20048;-85
2021/07/01 06:52:22;;;;;;;15.80;8.30;;;;;;;13.20;100.00;100406.44;5048715;28;20109;-85
2021/07/01 06:54:51;;;;;;;9.35;8.02;;;;;;;13.20;100.00;100405.59;5084172;28;20121;-85
2021/07/01 06:57:24;;;;;;;9.50;6.63;;;;;;;13.17;100.00;100401.25;5050617;28;20079;-84
2021/07/01 06:59:51;;;;;;;10.93;7.43;;;;;;;13.15;100.00;100396.94;5067066;28;20052;-85
2021/07/01 07:02:35;;;;;;;11.52;8.10;;;;;;;13.08;100.00;100398.84;5063234;28;20071;-84
2021/07/01 07:05:12;;;;;;;12.05;7.38;;;;;;;13.07;100.00;100390.13;5051502;28;20056;-84
2021/07/01 07:07:54;;;;;;;8.57;7.00;;;;;;;13.02;100.00;100396.38;5052823;28;20068;-85
2021/07/01 07:10:24;;;;;;;11.23;7.25;;;;;;;12.98;100.00;100397.34;5066369;28;20045;-85
2021/07/01 07:12:56;;;;;;;9.13;7.07;;;;;;;12.99;100.00;100397.31;5051872;28;20049;-84
2021/07/01 07:15:32;;;;;;;9.48;6.60;;;;;;;13.00;100.00;100398.19;5049787;28;20051;-85
2021/07/01 07:18:30;;;;;;;14.05;7.78;;;;;;;13.00;100.00;100399.03;5067493;28;20033;-85
2021/07/01 07:21:14;;;;;;;10.55;7.20;;;;;;;13.03;100.00;100401.59;5047854;28;20052;-85
2021/07/01 07:23:42;;;;;;;10.20;7.43;;;;;;;13.08;100.00;100397.09;5068745;28;20083;-85
2021/07/01 07:26:19;;;;;;;10.02;6.90;;;;;;;13.11;100.00;100393.53;5048470;28;20771;-85
2021/07/01 07:29:10;;;;;;;6.53;5.82;;;;;;;13.13;100.00;100398.72;5067607;28;20055;-85
2021/07/01 07:31:40;;;;;;;7.53;5.40;;;;;;;13.10;100.00;100404.94;5060266;28;20047;-84
2021/07/01 07:34:14;;;;;;;6.95;6.25;;;;;;;13.09;100.00;100411.09;5058822;28;20044;-85
2021/07/01 07:36:48;;;;;;;6.80;5.90;;;;;;;13.10;100.00;100404.94;5071059;28;20055;-85
2021/07/01 07:39:15;;;;;;;10.48;7.25;;;;;;;13.12;100.00;100412.81;5068462;28;20041;-85
2021/07/01 07:41:50;;;;;;;8.35;6.95;;;;;;;13.15;100.00;100415.34;5052819;28;20037;-84
2021/07/01 07:44:19;;;;;;;11.32;7.43;;;;;;;13.15;100.00;100408.31;5067727;28;20076;-86
2021/07/01 07:46:50;;;;;;;11.05;7.65;;;;;;;13.16;100.00;100423.19;5050011;28;20049;-86
2021/07/01 07:49:21;;;;;;;10.35;8.00;;;;;;;13.16;100.00;100414.44;5050364;28;20047;-85
2021/07/01 07:51:51;;;;;;;10.18;8.88;;;;;;;13.16;100.00;100414.44;5067742;28;20064;-85
2021/07/01 07:54:28;;;;;;;13.00;8.40;;;;;;;13.15;100.00;100404.84;5050716;28;20056;-85
2021/07/01 07:57:11;;;;;;;13.23;8.68;;;;;;;13.14;100.00;100411.88;5081731;28;20112;-85
2021/07/01 07:59:43;;;;;;;11.20;9.45;;;;;;;13.13;100.00;100415.38;5051415;28;20052;-84
2021/07/01 08:02:37;;;;;;;14.55;9.95;;;;;;;13.13;100.00;100411.88;5065312;28;20044;-85
2021/07/01 08:05:06;;;;;;;10.80;8.20;;;;;;;13.15;100.00;100410.09;5048580;28;20569;-85
2021/07/01 08:07:38;;;;;;;9.48;8.00;;;;;;;13.14;100.00;100403.97;5062799;28;20078;-85
2021/07/01 08:10:15;;;;;;;11.65;8.60;;;;;;;13.15;100.00;100403.06;5071728;28;20063;-86
2021/07/01 08:12:48;;;;;;;12.27;9.45;;;;;;;13.15;100.00;100407.47;5073315;28;20040;-86
2021/07/01 08:15:19;;;;;;;8.80;7.90;;;;;;;13.19;100.00;100410.00;5046067;28;20071;-86
2021/07/01 08:17:49;;;;;;;11.20;8.23;;;;;;;13.22;100.00;100414.31;5062063;28;20040;-85
2021/07/01 08:20:21;;;;;;;8.20;6.90;;;;;;;13.23;100.00;100414.28;5041481;28;20146;-85
2021/07/01 08:22:56;;;;;;;8.93;7.40;;;;;;;13.26;100.00;100421.22;5045502;28;20045;-86
2021/07/01 08:25:27;;;;;;;9.48;7.95;;;;;;;13.27;100.00;100422.97;5041574;28;20048;-85
2021/07/01 08:27:55;;;;;;;10.27;8.15;;;;;;;13.27;100.00;100425.59;5077368;28;20087;-85
2021/07/01 08:30:25;;;;;;;8.82;7.65;;;;;;;13.30;100.00;100428.13;5045865;28;20730;-85
2021/07/01 08:33:04;;;;;;;10.98;6.38;;;;;;;13.31;100.00;100423.72;5054753;28;20041;-84
2021/07/01 08:35:32;;;;;;;9.38;7.28;;;;;;;13.31;100.00;100421.09;5057658;28;20053;-85
2021/07/01 08:38:05;;;;;;;9.93;6.95;;;;;;;13.31;100.00;100431.59;5060775;28;20052;-85
2021/07/01 08:40:39;;;;;;;8.75;7.63;;;;;;;13.30;100.00;100422.03;5043313;28;20042;-86
2021/07/01 08:43:08;;;;;;;9.82;7.45;;;;;;;13.35;100.00;100425.38;5039467;28;20528;-86
2021/07/01 08:46:03;;;;;;;8.30;7.30;;;;;;;13.38;100.00;100428.84;5056228;28;20050;-85
2021/07/01 08:48:44;;;;;;;8.63;6.85;;;;;;;13.35;100.00;100433.25;5055871;28;20110;-85
2021/07/01 08:51:19;;;;;;;8.18;6.97;;;;;;;13.29;100.00;100422.91;5042157;28;20051;-85
2021/07/01 08:54:19;;;;;;;9.35;6.25;;;;;;;13.24;100.00;100425.63;5043675;28;20045;-85
2021/07/01 08:56:46;;;;;;;8.20;6.82;;;;;;;13.19;100.00;100427.50;5070761;28;20721;-85
2021/07/01 08:59:20;;;;;;;9.52;6.25;;;;;;;13.19;100.00;100433.66;5071312;28;20049;-86
2021/07/01 09:02:04;;;;;;;7.10;5.23;;;;;;;13.22;100.00;100430.09;5058334;28;20055;-85
2021/07/01 09:04:51;;;;;;;6.97;5.22;;;;;;;13.22;100.00;100436.19;5058642;28;20123;-86
2021/07/01 09:07:25;;;;;;;7.30;5.03;;;;;;;13.27;100.00;100433.47;5042580;28;20102;-85
2021/07/01 09:10:01;;;;;;;6.53;4.65;;;;;;;13.29;100.00;100429.03;5046119;28;20049;-85
2021/07/01 09:12:32;;;;;;;10.00;5.47;;;;;;;13.33;100.00;100438.56;5044129;28;20043;-86
2021/07/01 09:15:04;;;;;;;6.95;4.30;;;;;;;13.36;100.00;100437.63;5047872;28;20083;-85
2021/07/01 09:17:35;;;;;;;4.68;4.22;;;;;;;13.39;100.00;100438.44;5071357;28;20042;-86
2021/07/01 09:20:13;;;;;;;7.75;4.55;;;;;;;13.42;100.00;100447.19;5042371;28;20075;-86
2021/07/01 09:22:40;;;;;;;6.97;4.05;;;;;;;13.45;100.00;100437.44;5060232;28;20097;-85
2021/07/01 09:25:08;;;;;;;4.90;3.67;;;;;;;13.49;100.00;100432.97;5042440;28;20045;-86
2021/07/01 09:27:45;;;;;;;4.38;3.17;;;;;;;13.49;100.00;100431.22;5045179;28;20041;-85
2021/07/01 09:30:14;;;;;;;5.82;3.38;;;;;;;13.50;100.00;100432.91;5056113;28;20084;-86
2021/07/01 09:32:44;;;;;;;3.70;3.40;;;;;;;13.54;100.00;100442.47;5055840;28;20045;-85
2021/07/01 09:35:16;;;;;;;3.42;3.13;;;;;;;13.54;100.00;100439.81;5057406;28;20033;-85
2021/07/01 09:37:49;;;;;;;5.47;2.90;;;;;;;13.56;100.00;100437.19;5080205;28;20067;-84
2021/07/01 09:40:24;;;;;;;4.68;3.60;;;;;;;13.55;100.00;100438.94;5042719;28;20450;-84
2021/07/01 09:43:00;;;;;;;4.28;3.03;;;;;;;13.59;100.00;100444.13;5063599;28;20059;-83
2021/07/01 09:45:37;;;;;;;2.90;2.70;;;;;;;13.62;100.00;100442.28;5061158;28;20148;-84
2021/07/01 09:48:11;;;;;;;3.90;3.50;;;;;;;13.64;100.00;100444.88;5071402;28;20114;-84
2021/07/01 09:50:46;;;;;;;4.97;3.22;;;;;;;13.66;100.00;100449.22;5045171;28;20494;-83
2021/07/01 09:53:32;;;;;;;3.00;2.80;;;;;;;13.64;100.00;100442.25;5055695;28;20045;-84
2021/07/01 09:56:37;;;;;;;4.03;3.47;;;;;;;13.62;100.00;100450.16;5075567;28;20037;-84
2021/07/01 10:00:02;;;;;;;4.57;2.88;;;;;;;13.60;100.00;100444.09;5071267;28;20071;-84
2021/07/01 10:02:30;;;;;;;;;;;;;;;13.64;100.00;100450.16;5034305;28;20042;-86
2021/07/01 10:04:59;;;;;;;2.28;2.08;;;;;;;13.68;100.00;100454.44;5068954;28;20012;-86
2021/07/01 10:07:28;;;;;;;2.20;2.10;;;;;;;13.75;100.00;100455.13;5059593;28;20064;-85
2021/07/01 10:13:53;;;;;;;2.90;2.10;;;;;;;13.87;100.00;100458.31;5065193;23;20050;-82
2021/07/01 10:16:28;;;;;;;4.85;3.72;;;;;;;13.92;100.00;100457.31;4932494;28;20920;-84
2021/07/01 10:18:58;;;;;;;3.90;3.42;;;;;;;13.98;100.00;100454.53;4915616;29;20066;-83
2021/07/01 10:21:31;;;;;;;3.50;3.20;;;;;;;14.01;100.00;100452.66;4948417;28;20062;-82
2021/07/01 10:24:14;;;;;;;3.00;2.20;;;;;;;14.07;100.00;100457.78;4911773;29;20051;-83
2021/07/01 10:26:51;;;;;;;2.55;1.60;;;;;;;14.12;100.00;100455.03;4932934;29;20047;-84
2021/07/01 10:29:20;;;;;;;1.80;1.70;;;;;;;14.16;100.00;100450.56;4947353;28;20055;-85
2021/07/01 10:31:59;;;;;;;2.28;1.17;;;;;;;14.20;100.00;100447.78;4923862;28;20730;-83
2021/07/01 10:34:29;;;;;;;2.25;1.58;;;;;;;14.20;100.00;100452.19;4944078;28;20660;-82
2021/07/01 10:37:19;;;;;;;1.20;1.10;;;;;;;14.29;100.00;100451.94;4946828;28;20066;-83
2021/07/01 10:39:49;;;;;;;4.32;1.38;;;;;;;14.38;100.00;100450.84;4949851;28;20043;-83
2021/07/01 10:42:17;;;;;;;1.75;0.95;;;;;;;14.40;100.00;100454.28;4944867;28;20070;-83
2021/07/01 10:44:46;;;;;;;1.33;0.90;;;;;;;14.43;100.00;100446.31;4934117;28;20047;-83
2021/07/01 10:47:33;;;;;;;0.75;0.75;;;;;;;14.55;100.00;100460.91;4945076;28;20989;-85
2021/07/01 10:50:00;;;;;;;0.60;0.60;;;;;;;14.59;100.00;100444.09;4948858;28;20077;-82
2021/07/01 10:52:41;;;;;;;2.25;1.00;;;;;;;14.65;100.00;100454.50;4950351;28;20053;-84
2021/07/01 10:55:09;;;;;;;1.50;1.20;;;;;;;14.75;100.00;100447.16;4934743;28;20055;-82
2021/07/01 10:58:09;;;;;;;2.17;0.68;;;;;;;14.85;100.00;100448.63;4930124;28;20051;-82
2021/07/01 11:00:45;;;;;;;0.73;0.73;;;;;;;14.92;100.00;100451.06;4943134;28;20043;-82
2021/07/01 11:03:21;;;;;;;0.77;0.77;;;;;;;14.92;100.00;100443.16;4946252;28;20071;-82
2021/07/01 11:08:54;;;;;;;1.30;0.70;;;;;;;15.11;100.00;100451.34;5032114;28;20048;-88
2021/07/01 11:12:02;;;;;;;0.73;0.65;;;;;;;15.20;100.00;100451.06;5021829;28;20087;-87
2021/07/01 11:15:15;;;;;;;0.40;0.40;;;;;;;15.25;100.00;100457.06;5032730;28;20032;-95
2021/07/01 11:17:50;;;;;;;0.73;0.55;;;;;;;15.29;100.00;100447.28;5032461;28;20402;-87
2021/07/01 11:20:31;;;;;;;0.77;0.77;;;;;;;15.28;100.00;100451.69;5021113;28;20052;-87
2021/07/01 11:23:02;;;;;;;1.05;0.90;;;;;;;15.34;100.00;100459.44;5036364;28;20049;-87
2021/07/01 11:25:46;;;;;;;0.40;0.40;;;;;;;15.51;99.50;100458.88;5041466;28;20550;-91
2021/07/01 11:28:23;;;;;;;1.35;0.65;;;;;;;15.54;100.00;100469.31;5019325;28;20045;-89
2021/07/01 11:31:05;;;;;;;0.35;0.35;;;;;;;15.58;100.00;100462.19;5030967;28;20045;-87
2021/07/01 11:37:39;;;;;;;0.30;0.25;;;;;;;15.50;99.06;100451.00;5030108;28;20033;-87
2021/07/01 11:40:51;;;;;;;0.20;0.20;;;;;;;15.50;100.00;100457.16;5020857;28;20045;-86
2021/07/01 11:43:21;;;;;;;1.75;0.20;;;;;;;15.57;99.65;100467.50;5015849;28;20037;-93
2021/07/01 11:45:52;;;;;;;0.20;0.20;;;;;;;15.62;98.28;100474.34;5017443;28;20549;-87
2021/07/01 11:48:37;;;;;;;0.30;0.17;;;;;;;15.58;98.04;100462.19;5014007;28;20088;-86
2021/07/01 11:51:31;;;;;;;0.70;0.20;;;;;;;15.56;98.28;100469.25;5014456;28;20543;-89
2021/07/01 11:54:34;;;;;;;1.45;0.20;;;;;;;15.55;99.30;100478.09;5013681;28;20045;-86
2021/07/01 11:57:14;;;;;;;0.75;0.30;;;;;;;15.62;97.79;100473.47;5000112;28;20037;-86